Ana Sayfa
METAR-TAF:

METAR-TAF

Havaalanları :

Amsterdam Schiphol Havalimanı

Amsterdam, Hollanda

Enlem: 52-18N, Boylam: 004-46E, yükseklik: -4 m

Güncel hava durumu gözlemi

Rapor saat 07:55 UTC de 33 dakika önce yapıldı.
Rüzgar kuzey/kuzeydoğudan 6 kt, kuzey/kuzeybatı ve doğu arasında değişken
Sıcaklık 20°C
Nem 64%
Basınç 1015 hPa
Görüş mesafesi 10 km veya daha fazla
2800 ft yükseklikte az bulutlu

METAR: EHAM 200755Z 02006KT 330V080 9999 FEW028 20/13 Q1015 NOSIG

Saat: 10:28 (08:28 UTC)

Tahmin

Rapor saat 04:37 UTC de 3 saat ve 51 dakika önce yapıldı.
Ayın 20'si saat 06 UTC'den ayın 21'si saat 12 UTC'ye kadar geçerli Tahmin
Rüzgar kuzey/kuzeydoğudan 5 kt
Görüş mesafesi 10 km veya daha fazla
1500 m altında bulut yok ve kümülonimbus yok

TAF: EHAM 200437Z 2006/2112 02005KT CAVOK

4.000'den fazla havaalanı için hava durumu gözlemleri ve tahminleri (METAR ve TAF raporları).

Kullanılabilir istasyonlar harita üzerinde sarı ve kırmızı noktalarla gösterilir.

İstasyonun adını görmek için fareyi noktanın üzerinde gezdirin.

Sonrasında hava gözlem ve tahminlerini görmek için tıklayın.

Haritayı değiştirmek için: yaklaştırmak için siyah artı işaretli yeşil düğmeye ve uzaklaştırmak için de eksi işaretli düğmeye hızla tıklayın; bitişik haritalar için yeşil okları kullanın.


METAR-TAF: